Time;durP1;ratioP1;P1;durP2;ratioP2;P2;SDS_P1;SDS_P2;PMS_P1;PMS_P2;Temp;Humidity;BMP_temperature;BMP_pressure;BME280_temperature;BME280_humidity;BME280_pressure;Samples;Min_cycle;Max_cycle;Signal;HPM_P1;HPM_P2
2024/02/14 00:02:10;;;;;;;11.25;6.28;;;7.40;99.90;;;;;;5137530;27;20039;-63
2024/02/14 00:04:36;;;;;;;8.05;6.18;;;7.50;99.90;;;;;;5139574;27;20526;-63
2024/02/14 00:07:01;;;;;;;12.43;6.35;;;7.40;99.90;;;;;;5141897;27;20794;-62
2024/02/14 00:09:27;;;;;;;7.53;6.15;;;7.50;99.90;;;;;;5141130;27;20047;-63
2024/02/14 00:11:53;;;;;;;10.00;6.75;;;7.50;99.90;;;;;;5143484;27;20035;-62
2024/02/14 00:14:20;;;;;;;10.40;6.82;;;7.50;99.90;;;;;;5137549;27;20043;-63
2024/02/14 00:16:46;;;;;;;15.65;8.13;;;7.50;99.90;;;;;;5140527;27;20070;-63
2024/02/14 00:19:11;;;;;;;11.77;7.53;;;7.50;99.90;;;;;;5133140;27;20050;-63
2024/02/14 00:21:39;;;;;;;11.32;7.53;;;7.50;99.90;;;;;;5137206;27;20074;-63
2024/02/14 00:24:05;;;;;;;10.98;7.25;;;7.40;99.90;;;;;;5138237;27;20551;-63
2024/02/14 00:26:31;;;;;;;9.45;8.07;;;7.40;99.90;;;;;;5142031;27;20039;-63
2024/02/14 00:28:57;;;;;;;15.63;8.43;;;7.50;99.90;;;;;;5138454;27;20038;-63
2024/02/14 00:31:23;;;;;;;10.38;7.40;;;7.40;99.90;;;;;;5138726;27;20039;-62
2024/02/14 00:33:49;;;;;;;14.48;8.65;;;7.50;99.90;;;;;;5136227;27;20042;-62
2024/02/14 00:36:14;;;;;;;11.77;8.15;;;7.50;99.90;;;;;;5137282;27;20810;-63
2024/02/14 00:38:40;;;;;;;11.48;8.30;;;7.50;99.90;;;;;;5138631;27;20042;-63
2024/02/14 00:41:06;;;;;;;14.75;8.43;;;7.50;99.90;;;;;;5141607;27;20440;-63
2024/02/14 00:43:32;;;;;;;12.52;8.95;;;7.60;99.90;;;;;;5120624;27;20042;-63
2024/02/14 00:45:58;;;;;;;13.52;9.50;;;7.60;99.90;;;;;;5140671;27;20977;-63
2024/02/14 00:48:23;;;;;;;11.88;9.10;;;7.40;99.90;;;;;;5140126;27;20034;-64
2024/02/14 00:50:49;;;;;;;11.25;8.48;;;7.60;99.90;;;;;;5139157;27;20039;-63
2024/02/14 00:53:15;;;;;;;13.60;9.07;;;7.50;99.90;;;;;;5141865;27;20045;-62
2024/02/14 00:55:41;;;;;;;11.15;8.65;;;7.50;99.90;;;;;;5137843;27;20035;-62
2024/02/14 00:58:07;;;;;;;11.85;8.35;;;7.60;99.90;;;;;;5140223;27;20039;-62
2024/02/14 01:00:32;;;;;;;16.05;9.20;;;7.50;99.90;;;;;;5139823;27;20038;-62
2024/02/14 01:02:58;;;;;;;13.68;9.52;;;7.60;99.90;;;;;;5137804;27;20043;-63
2024/02/14 01:05:24;;;;;;;10.63;8.82;;;7.50;99.90;;;;;;5141379;27;20107;-63
2024/02/14 01:07:51;;;;;;;12.98;9.45;;;7.60;99.90;;;;;;5142355;27;20107;-62
2024/02/14 01:10:18;;;;;;;12.48;8.45;;;7.60;99.90;;;;;;5120572;27;20034;-62
2024/02/14 01:12:44;;;;;;;9.50;7.78;;;7.50;99.90;;;;;;5139136;27;20074;-62
2024/02/14 01:15:10;;;;;;;11.13;8.73;;;7.70;99.90;;;;;;5142185;27;20074;-62
2024/02/14 01:17:36;;;;;;;12.27;9.05;;;7.60;99.90;;;;;;5139088;27;20038;-62
2024/02/14 01:20:03;;;;;;;10.43;9.05;;;7.70;99.90;;;;;;5141357;27;20042;-63
2024/02/14 01:22:29;;;;;;;10.50;8.50;;;7.60;99.90;;;;;;5138493;27;20039;-63
2024/02/14 01:24:55;;;;;;;10.43;8.90;;;7.60;99.90;;;;;;5139074;27;20166;-63
2024/02/14 01:27:22;;;;;;;10.15;8.38;;;7.70;99.90;;;;;;5117991;27;20115;-62
2024/02/14 01:29:48;;;;;;;9.35;8.27;;;7.70;99.90;;;;;;5143279;27;20037;-63
2024/02/14 01:32:14;;;;;;;8.73;7.93;;;7.60;99.90;;;;;;5138294;27;20079;-63
2024/02/14 01:34:42;;;;;;;13.35;8.57;;;7.60;99.90;;;;;;5138738;27;20112;-62
2024/02/14 01:37:09;;;;;;;12.68;8.43;;;7.60;99.90;;;;;;5137893;27;20035;-63
2024/02/14 01:39:35;;;;;;;10.82;7.63;;;7.70;99.90;;;;;;5138500;27;20347;-63
2024/02/14 01:42:06;;;;;;;8.63;7.45;;;7.70;99.90;;;;;;5140825;27;20039;-62
2024/02/14 01:44:32;;;;;;;9.00;8.00;;;7.70;99.90;;;;;;5138098;27;20042;-64
2024/02/14 01:46:59;;;;;;;9.13;7.63;;;7.80;99.90;;;;;;5141426;27;20772;-62
2024/02/14 01:49:28;;;;;;;8.23;7.20;;;7.80;99.90;;;;;;5141207;27;20034;-63
2024/02/14 01:51:56;;;;;;;8.27;6.85;;;7.90;99.90;;;;;;5140062;27;20023;-63
2024/02/14 01:54:22;;;;;;;9.85;6.88;;;7.90;99.90;;;;;;5137459;27;20043;-63
2024/02/14 01:56:48;;;;;;;7.75;6.93;;;7.70;99.90;;;;;;5138311;27;20066;-63
2024/02/14 01:59:16;;;;;;;7.00;6.30;;;7.80;99.90;;;;;;5139535;27;20114;-63
2024/02/14 02:01:42;;;;;;;7.28;6.53;;;7.80;99.90;;;;;;5141126;27;20109;-62
2024/02/14 02:04:08;;;;;;;7.97;7.00;;;7.80;99.90;;;;;;5139661;27;20046;-63
2024/02/14 02:06:34;;;;;;;6.70;6.07;;;7.80;99.90;;;;;;5138720;27;20050;-64
2024/02/14 02:09:01;;;;;;;7.10;6.40;;;8.00;99.90;;;;;;5139288;27;20042;-64
2024/02/14 02:11:26;;;;;;;6.45;5.85;;;7.80;99.90;;;;;;5120211;27;20122;-63
2024/02/14 02:13:52;;;;;;;8.18;6.50;;;8.00;99.90;;;;;;5101506;27;20388;-63
2024/02/14 02:16:21;;;;;;;7.65;6.15;;;8.00;99.90;;;;;;5138553;27;20050;-64
2024/02/14 02:18:50;;;;;;;6.78;6.07;;;7.90;99.90;;;;;;5139260;27;20585;-65
2024/02/14 02:21:19;;;;;;;;;;;8.00;99.90;;;;;;5136979;27;20666;-63
2024/02/14 02:23:46;;;;;;;6.10;5.45;;;8.10;99.90;;;;;;5136389;27;19923;-64
2024/02/14 02:26:12;;;;;;;6.43;5.80;;;8.10;99.90;;;;;;5116926;27;20518;-64
2024/02/14 02:28:39;;;;;;;9.23;5.93;;;8.10;99.90;;;;;;5136963;27;20043;-64
2024/02/14 02:31:05;;;;;;;6.28;5.68;;;8.00;99.90;;;;;;5122175;27;20495;-65
2024/02/14 02:33:31;;;;;;;6.25;5.63;;;8.10;99.90;;;;;;5140013;27;20038;-63
2024/02/14 02:35:57;;;;;;;7.22;5.65;;;8.10;99.90;;;;;;5118580;27;20129;-64
2024/02/14 02:38:23;;;;;;;6.10;5.25;;;8.20;99.90;;;;;;5119482;27;20051;-64
2024/02/14 02:40:49;;;;;;;6.68;5.40;;;8.10;99.90;;;;;;5143914;27;20058;-64
2024/02/14 02:43:15;;;;;;;6.68;5.95;;;8.20;99.90;;;;;;5138922;27;20462;-63
2024/02/14 02:45:42;;;;;;;6.85;5.90;;;8.10;99.90;;;;;;5104877;27;20042;-64
2024/02/14 02:48:08;;;;;;;7.97;6.30;;;8.30;99.90;;;;;;5120840;27;20517;-64
2024/02/14 02:50:33;;;;;;;6.18;5.38;;;8.30;99.90;;;;;;5134776;27;20038;-64
2024/02/14 02:52:59;;;;;;;7.38;6.03;;;8.30;99.90;;;;;;5136023;27;20530;-63
2024/02/14 02:55:26;;;;;;;7.18;6.47;;;8.20;99.90;;;;;;5144484;27;20041;-64
2024/02/14 02:57:52;;;;;;;7.43;6.38;;;8.20;99.90;;;;;;5140543;27;20498;-64
2024/02/14 03:00:21;;;;;;;7.55;5.90;;;8.30;99.90;;;;;;5120909;27;20046;-64
2024/02/14 03:02:47;;;;;;;7.75;6.18;;;8.20;99.90;;;;;;5140239;27;20521;-63
2024/02/14 03:05:19;;;;;;;6.50;5.85;;;8.40;99.90;;;;;;5118352;27;20040;-65
2024/02/14 03:07:47;;;;;;;6.13;5.53;;;8.30;99.90;;;;;;5116529;27;20031;-65
2024/02/14 03:10:14;;;;;;;7.13;5.47;;;8.30;99.90;;;;;;5140593;27;20122;-65
2024/02/14 03:12:40;;;;;;;6.20;5.60;;;8.40;99.90;;;;;;5140052;27;20046;-65
2024/02/14 03:15:10;;;;;;;6.20;5.40;;;8.40;99.90;;;;;;5140302;27;20039;-65
2024/02/14 03:17:35;;;;;;;6.22;5.55;;;8.50;99.90;;;;;;5139975;27;20083;-65
2024/02/14 03:20:02;;;;;;;7.00;5.63;;;8.40;99.90;;;;;;5139362;27;20137;-64
2024/02/14 03:22:27;;;;;;;7.15;4.72;;;8.60;99.90;;;;;;5138996;27;20046;-65
2024/02/14 03:24:53;;;;;;;5.63;4.47;;;8.40;99.90;;;;;;5137721;27;20038;-64
2024/02/14 03:27:19;;;;;;;5.40;4.30;;;8.60;99.90;;;;;;5139715;27;20070;-64
2024/02/14 03:29:47;;;;;;;4.85;4.38;;;8.60;99.90;;;;;;5138600;27;20038;-63
2024/02/14 03:32:13;;;;;;;5.22;4.05;;;8.70;99.90;;;;;;5141279;27;20470;-64
2024/02/14 03:34:38;;;;;;;4.20;3.80;;;8.70;99.90;;;;;;5141751;27;20046;-64
2024/02/14 03:37:06;;;;;;;3.78;3.33;;;8.60;99.90;;;;;;5140510;27;20066;-64
2024/02/14 03:39:32;;;;;;;4.10;3.70;;;8.60;99.90;;;;;;5119214;27;20146;-65
2024/02/14 03:42:02;;;;;;;4.53;3.70;;;8.60;99.90;;;;;;5139559;27;20059;-65
2024/02/14 03:44:28;;;;;;;4.40;3.95;;;8.80;99.90;;;;;;5138245;27;20039;-64
2024/02/14 03:46:53;;;;;;;4.45;3.95;;;8.80;99.90;;;;;;5138333;27;20038;-64
2024/02/14 03:49:19;;;;;;;4.63;4.20;;;8.90;99.90;;;;;;5140463;27;20039;-64
2024/02/14 03:51:46;;;;;;;4.95;4.45;;;8.80;99.90;;;;;;5118910;27;20073;-63
2024/02/14 03:54:11;;;;;;;5.07;4.10;;;8.90;99.90;;;;;;5138353;27;20059;-65
2024/02/14 03:56:37;;;;;;;5.07;4.57;;;8.90;99.90;;;;;;5144552;27;20589;-66
2024/02/14 03:59:07;;;;;;;5.20;4.68;;;9.00;99.90;;;;;;5118904;27;20096;-64
2024/02/14 04:01:33;;;;;;;4.82;4.38;;;9.00;99.90;;;;;;5138365;27;20062;-64
2024/02/14 04:04:00;;;;;;;5.47;4.82;;;9.00;99.90;;;;;;5138748;27;20046;-64
2024/02/14 04:06:26;;;;;;;5.32;4.80;;;9.10;99.90;;;;;;5137132;27;20022;-65
2024/02/14 04:08:52;;;;;;;6.00;5.05;;;8.90;99.90;;;;;;5139580;27;20039;-64
2024/02/14 04:11:18;;;;;;;6.00;5.30;;;8.90;99.90;;;;;;5119498;27;20043;-65
2024/02/14 04:13:43;;;;;;;6.50;5.78;;;9.10;99.90;;;;;;5139611;27;20042;-65
2024/02/14 04:16:09;;;;;;;6.82;5.47;;;9.00;99.90;;;;;;5137550;27;20086;-65
2024/02/14 04:18:35;;;;;;;6.80;5.65;;;9.10;99.90;;;;;;5118070;27;20461;-65
2024/02/14 04:21:01;;;;;;;7.22;6.05;;;9.30;99.90;;;;;;5121390;27;20276;-65
2024/02/14 04:23:27;;;;;;;7.03;5.97;;;9.20;99.90;;;;;;5140990;27;20049;-65
2024/02/14 04:25:53;;;;;;;7.38;6.05;;;9.20;99.90;;;;;;5117645;27;20081;-64
2024/02/14 04:28:18;;;;;;;7.38;6.57;;;9.30;99.90;;;;;;5137003;27;20491;-65
2024/02/14 04:30:45;;;;;;;8.43;6.60;;;9.20;99.90;;;;;;5136671;27;20042;-64
2024/02/14 04:33:11;;;;;;;7.88;7.07;;;9.20;99.90;;;;;;5118828;27;20080;-65
2024/02/14 04:35:37;;;;;;;9.93;7.28;;;9.30;99.90;;;;;;5138426;27;20541;-65
2024/02/14 04:38:02;;;;;;;9.95;8.23;;;9.50;99.90;;;;;;5141534;27;20046;-64
2024/02/14 04:40:28;;;;;;;10.00;7.47;;;9.30;99.90;;;;;;5136566;27;20038;-64
2024/02/14 04:42:54;;;;;;;8.93;7.32;;;9.40;99.90;;;;;;5141571;27;20080;-64
2024/02/14 04:45:20;;;;;;;9.40;7.65;;;9.40;99.90;;;;;;5145164;27;20788;-64
2024/02/14 04:47:45;;;;;;;11.40;8.23;;;9.60;99.90;;;;;;5120660;27;20035;-65
2024/02/14 04:50:11;;;;;;;8.60;7.18;;;9.60;99.90;;;;;;5137110;27;20027;-65
2024/02/14 04:52:37;;;;;;;11.77;7.63;;;9.50;99.90;;;;;;5119077;27;20051;-64
2024/02/14 04:55:03;;;;;;;9.43;7.65;;;9.60;99.90;;;;;;5142124;27;20506;-64
2024/02/14 04:57:29;;;;;;;8.02;6.32;;;9.70;99.90;;;;;;5136168;27;20070;-65
2024/02/14 04:59:55;;;;;;;10.98;6.60;;;9.70;99.90;;;;;;5142198;27;20039;-65
2024/02/14 05:02:21;;;;;;;8.57;6.45;;;9.50;99.90;;;;;;5114236;27;20054;-64
2024/02/14 05:04:46;;;;;;;8.63;6.47;;;9.80;99.90;;;;;;5120096;27;20091;-65
2024/02/14 05:07:12;;;;;;;9.10;6.90;;;9.80;99.90;;;;;;5141506;27;20075;-65
2024/02/14 05:09:38;;;;;;;9.73;6.45;;;9.70;99.90;;;;;;5136649;27;20121;-65
2024/02/14 05:12:04;;;;;;;7.78;6.75;;;9.80;99.90;;;;;;5139410;27;20501;-65
2024/02/14 05:14:31;;;;;;;8.68;6.68;;;9.70;99.90;;;;;;5140005;27;21099;-64
2024/02/14 05:16:56;;;;;;;7.90;6.32;;;9.80;99.90;;;;;;5136232;27;20042;-65
2024/02/14 05:19:22;;;;;;;11.00;6.82;;;9.90;99.90;;;;;;5134015;27;20039;-64
2024/02/14 05:21:49;;;;;;;8.23;6.68;;;9.70;99.90;;;;;;5143641;27;20046;-64
2024/02/14 05:24:15;;;;;;;10.73;6.68;;;9.80;99.90;;;;;;5138137;27;20057;-66
2024/02/14 05:26:40;;;;;;;7.75;6.47;;;9.80;99.90;;;;;;5135724;27;20035;-65
2024/02/14 05:29:06;;;;;;;7.85;6.07;;;9.90;99.90;;;;;;5135784;27;20050;-64
2024/02/14 05:31:46;;;;;;;8.32;6.30;;;10.00;99.90;;;;;;5132163;27;20042;-64
2024/02/14 05:34:12;;;;;;;7.57;5.55;;;9.80;99.90;;;;;;5139139;27;20782;-65
2024/02/14 05:36:38;;;;;;;8.85;6.50;;;9.90;99.90;;;;;;5133333;27;20149;-64
2024/02/14 05:39:05;;;;;;;8.45;6.30;;;9.80;99.90;;;;;;5120781;27;20035;-64
2024/02/14 05:41:32;;;;;;;8.63;6.03;;;9.90;99.90;;;;;;5117668;27;20502;-64
2024/02/14 05:44:02;;;;;;;9.93;6.85;;;9.90;99.90;;;;;;5121105;27;20525;-64
2024/02/14 05:46:28;;;;;;;9.15;6.63;;;10.00;99.90;;;;;;5139501;27;20533;-64
2024/02/14 05:48:55;;;;;;;8.95;6.18;;;9.80;99.90;;;;;;5136686;27;20038;-64
2024/02/14 05:51:21;;;;;;;10.35;6.55;;;10.00;99.90;;;;;;5132636;27;20031;-65
2024/02/14 05:53:46;;;;;;;10.52;6.72;;;10.00;99.90;;;;;;5114206;27;20414;-65
2024/02/14 05:56:12;;;;;;;8.38;5.88;;;9.90;99.90;;;;;;5137599;27;20417;-65
2024/02/14 05:58:38;;;;;;;7.35;5.72;;;10.00;99.90;;;;;;5141762;27;20038;-65
2024/02/14 06:01:04;;;;;;;10.52;6.07;;;9.80;99.90;;;;;;5138648;27;20034;-64
2024/02/14 06:03:29;;;;;;;9.77;6.32;;;10.00;99.90;;;;;;5116126;27;20578;-65
2024/02/14 06:05:55;;;;;;;8.30;5.05;;;9.90;99.90;;;;;;5136913;27;20408;-65
2024/02/14 06:08:23;;;;;;;8.90;5.15;;;10.00;99.90;;;;;;5140498;27;20565;-65
2024/02/14 06:10:49;;;;;;;10.20;6.28;;;10.10;99.90;;;;;;5134667;27;20117;-65
2024/02/14 06:13:15;;;;;;;6.70;5.03;;;10.10;99.90;;;;;;5099056;27;20151;-64
2024/02/14 06:15:41;;;;;;;8.00;5.35;;;10.00;99.90;;;;;;5141093;27;20041;-65
2024/02/14 06:18:07;;;;;;;8.50;5.35;;;9.90;99.90;;;;;;5140511;27;20153;-64
2024/02/14 06:20:32;;;;;;;8.13;4.93;;;9.90;99.90;;;;;;5140944;27;20441;-65
2024/02/14 06:22:58;;;;;;;10.43;5.05;;;10.10;99.90;;;;;;5119826;27;20043;-64
2024/02/14 06:25:24;;;;;;;12.25;5.57;;;10.20;99.90;;;;;;5131307;27;20034;-64
2024/02/14 06:27:50;;;;;;;21.17;7.30;;;10.20;99.90;;;;;;5113948;27;20085;-64
2024/02/14 06:30:17;;;;;;;29.20;7.72;;;10.20;99.90;;;;;;5137682;27;20121;-65
2024/02/14 06:32:42;;;;;;;30.15;8.05;;;10.30;99.90;;;;;;5141078;27;20054;-64
2024/02/14 06:35:08;;;;;;;35.33;9.45;;;10.40;99.90;;;;;;5145549;27;20047;-64
2024/02/14 06:37:34;;;;;;;42.72;10.95;;;10.10;99.90;;;;;;5145690;27;20037;-64
2024/02/14 06:39:59;;;;;;;43.83;9.93;;;10.40;99.90;;;;;;5147375;27;20042;-65
2024/02/14 06:42:26;;;;;;;50.85;10.07;;;10.20;99.90;;;;;;5145768;27;20065;-65
2024/02/14 06:44:52;;;;;;;43.05;9.52;;;10.40;99.90;;;;;;5147210;27;20118;-64
2024/02/14 06:47:18;;;;;;;46.72;9.95;;;10.30;99.90;;;;;;5147023;27;20035;-64
2024/02/14 06:49:44;;;;;;;43.38;8.80;;;10.50;99.90;;;;;;5127411;27;20130;-65
2024/02/14 06:52:09;;;;;;;42.47;9.02;;;10.50;99.90;;;;;;5147828;27;20054;-64
2024/02/14 06:54:35;;;;;;;51.47;9.95;;;10.30;99.90;;;;;;5142536;27;20113;-65
2024/02/14 06:57:01;;;;;;;45.08;9.05;;;10.40;99.90;;;;;;5147472;27;20585;-65
2024/02/14 06:59:27;;;;;;;36.45;7.45;;;10.60;99.90;;;;;;5138172;27;20035;-64
2024/02/14 07:01:54;;;;;;;53.03;9.05;;;10.50;99.90;;;;;;5136498;27;20729;-65
2024/02/14 07:04:25;;;;;;;41.47;8.73;;;10.50;99.90;;;;;;5144708;27;20050;-65
2024/02/14 07:06:53;;;;;;;36.03;7.40;;;10.60;99.90;;;;;;5126909;27;20158;-64
2024/02/14 07:09:18;;;;;;;44.33;8.52;;;10.50;99.90;;;;;;5147200;27;20146;-64
2024/02/14 07:11:45;;;;;;;39.17;7.55;;;10.50;99.90;;;;;;5147044;27;20110;-65
2024/02/14 07:14:11;;;;;;;48.78;7.97;;;10.40;99.90;;;;;;5147035;27;20658;-65
2024/02/14 07:16:37;;;;;;;40.25;9.00;;;10.40;99.90;;;;;;5145111;27;20494;-64
2024/02/14 07:19:03;;;;;;;56.33;8.65;;;10.40;99.90;;;;;;5148274;27;20038;-65
2024/02/14 07:21:29;;;;;;;52.65;9.50;;;10.60;99.90;;;;;;5145453;27;20050;-65
2024/02/14 07:23:55;;;;;;;46.70;9.13;;;10.50;99.90;;;;;;5146871;27;20042;-65
2024/02/14 07:26:21;;;;;;;48.15;10.15;;;10.60;99.90;;;;;;5144872;27;20395;-64
2024/02/14 07:28:47;;;;;;;52.35;9.23;;;10.50;99.90;;;;;;5127240;27;20066;-65
2024/02/14 07:31:12;;;;;;;56.38;9.30;;;10.50;99.90;;;;;;5147417;27;20034;-65
2024/02/14 07:33:38;;;;;;;47.17;8.63;;;10.70;99.90;;;;;;5145411;27;20046;-65
2024/02/14 07:36:04;;;;;;;46.70;8.73;;;10.70;99.90;;;;;;5147000;27;20091;-65
2024/02/14 07:38:30;;;;;;;50.60;8.77;;;10.40;99.90;;;;;;5146269;27;20050;-65
2024/02/14 07:40:56;;;;;;;36.95;7.70;;;10.50;99.90;;;;;;5144369;27;20066;-66
2024/02/14 07:43:22;;;;;;;50.25;9.38;;;10.50;99.90;;;;;;5142970;27;20122;-65
2024/02/14 07:45:48;;;;;;;46.15;8.32;;;10.70;99.90;;;;;;5142833;27;20711;-65
2024/02/14 07:48:14;;;;;;;55.78;10.20;;;10.50;99.90;;;;;;5142659;27;20034;-65
2024/02/14 07:50:40;;;;;;;48.33;9.65;;;10.70;99.90;;;;;;5142859;27;20418;-64
2024/02/14 07:53:06;;;;;;;52.30;10.63;;;10.70;99.90;;;;;;5143031;27;20031;-64
2024/02/14 07:55:32;;;;;;;50.00;9.27;;;10.50;99.90;;;;;;5124131;27;20049;-65
2024/02/14 07:57:59;;;;;;;47.65;10.25;;;10.60;99.90;;;;;;5142796;27;20038;-65
2024/02/14 08:00:25;;;;;;;47.63;8.93;;;10.70;99.90;;;;;;5141559;27;20050;-64
2024/02/14 08:02:51;;;;;;;53.60;9.52;;;10.60;99.90;;;;;;5142266;27;20042;-64
2024/02/14 08:05:17;;;;;;;53.15;10.25;;;10.50;99.90;;;;;;5139878;27;20099;-65
2024/02/14 08:07:45;;;;;;;50.03;8.90;;;10.80;99.90;;;;;;5144303;27;20038;-65
2024/02/14 08:10:10;;;;;;;57.28;10.80;;;10.70;99.90;;;;;;5142648;27;20046;-64
2024/02/14 08:12:36;;;;;;;53.42;9.27;;;10.50;99.90;;;;;;5143241;27;20042;-65
2024/02/14 08:15:05;;;;;;;58.67;9.50;;;10.50;99.90;;;;;;5141672;27;20083;-65
2024/02/14 08:17:31;;;;;;;;;;;10.50;99.90;;;;;;5143258;27;20109;-65
2024/02/14 08:19:57;;;;;;;57.03;9.57;;;10.80;99.90;;;;;;5142661;27;19926;-65
2024/02/14 08:22:23;;;;;;;41.92;8.50;;;10.60;99.90;;;;;;5140243;27;20043;-66
2024/02/14 08:24:49;;;;;;;50.50;10.00;;;10.80;99.90;;;;;;5140244;27;20035;-64
2024/02/14 08:27:14;;;;;;;35.13;8.60;;;10.80;99.90;;;;;;5144084;27;20102;-65
2024/02/14 08:29:40;;;;;;;43.25;9.57;;;10.70;99.90;;;;;;5142402;27;20043;-65
2024/02/14 08:32:06;;;;;;;51.63;10.25;;;10.90;99.90;;;;;;5143525;27;20107;-64
2024/02/14 08:34:32;;;;;;;42.28;8.75;;;10.70;99.90;;;;;;5141208;27;20129;-65
2024/02/14 08:36:57;;;;;;;54.20;9.38;;;11.00;99.90;;;;;;5142148;27;20114;-65
2024/02/14 08:39:23;;;;;;;45.88;8.98;;;10.90;99.90;;;;;;5142269;27;20070;-65
2024/02/14 08:41:50;;;;;;;50.53;9.18;;;10.80;99.90;;;;;;5142760;27;20039;-65
2024/02/14 08:44:16;;;;;;;39.22;9.05;;;10.80;99.90;;;;;;5141906;27;20039;-65
2024/02/14 08:46:44;;;;;;;37.00;8.77;;;11.00;99.90;;;;;;5141529;27;20406;-64
2024/02/14 08:49:10;;;;;;;47.80;8.70;;;10.90;99.90;;;;;;5141716;27;20038;-65
2024/02/14 08:51:36;;;;;;;48.92;8.40;;;11.00;99.90;;;;;;5139336;27;20035;-65
2024/02/14 08:54:04;;;;;;;34.08;8.65;;;11.10;99.90;;;;;;5141895;27;20047;-65
2024/02/14 08:56:34;;;;;;;37.72;8.93;;;11.00;99.90;;;;;;5141905;27;20038;-65
2024/02/14 08:59:06;;;;;;;38.33;8.07;;;11.10;99.90;;;;;;5124405;27;20654;-65
2024/02/14 09:01:32;;;;;;;36.38;8.50;;;11.10;99.90;;;;;;5140403;27;20435;-65
2024/02/14 09:03:59;;;;;;;38.38;9.63;;;11.00;99.90;;;;;;5142088;27;20050;-65
2024/02/14 09:06:26;;;;;;;33.95;9.88;;;10.90;99.90;;;;;;5140652;27;20042;-65
2024/02/14 09:08:52;;;;;;;34.60;9.20;;;10.90;99.90;;;;;;5141218;27;20041;-64
2024/02/14 09:11:19;;;;;;;39.17;10.50;;;10.90;99.90;;;;;;5141541;27;20051;-65
2024/02/14 09:13:47;;;;;;;41.05;11.70;;;11.10;99.90;;;;;;5140793;27;20038;-65
2024/02/14 09:16:15;;;;;;;45.08;12.90;;;11.10;99.90;;;;;;5140101;27;20761;-65
2024/02/14 09:18:41;;;;;;;41.88;13.15;;;10.90;99.90;;;;;;5141322;27;20043;-64
2024/02/14 09:21:07;;;;;;;35.60;13.20;;;11.20;99.90;;;;;;5139904;27;20046;-64
2024/02/14 09:23:33;;;;;;;36.63;13.13;;;10.90;99.90;;;;;;5102736;27;20039;-65
2024/02/14 09:25:59;;;;;;;42.22;12.30;;;11.00;99.90;;;;;;5141177;27;20503;-64
2024/02/14 09:28:25;;;;;;;35.42;12.63;;;11.10;99.90;;;;;;5141109;27;20118;-65
2024/02/14 09:30:51;;;;;;;33.30;12.95;;;11.10;99.90;;;;;;5141130;27;20027;-64
2024/02/14 09:33:17;;;;;;;39.90;12.95;;;11.30;99.90;;;;;;5141204;27;20035;-65
2024/02/14 09:35:47;;;;;;;44.53;13.60;;;11.20;99.90;;;;;;5140167;27;20732;-64
2024/02/14 09:38:13;;;;;;;45.30;13.32;;;11.20;99.90;;;;;;5140648;27;20049;-66
2024/02/14 09:40:43;;;;;;;40.03;12.90;;;11.30;99.90;;;;;;5140086;27;20549;-65
2024/02/14 09:43:34;;;;;;;35.72;12.52;;;11.50;99.90;;;;;;5138951;27;20053;-65
2024/02/14 09:46:00;;;;;;;34.03;11.85;;;11.50;99.90;;;;;;5139518;27;20030;-65
2024/02/14 09:48:26;;;;;;;36.70;10.45;;;11.30;99.90;;;;;;5139936;27;20476;-65
2024/02/14 09:50:53;;;;;;;35.35;10.93;;;11.20;99.90;;;;;;5122411;27;20042;-65
2024/02/14 09:53:20;;;;;;;32.42;10.38;;;11.20;99.90;;;;;;5138969;27;20042;-65
2024/02/14 09:55:50;;;;;;;30.58;10.15;;;11.30;99.90;;;;;;5142158;27;20042;-65
2024/02/14 09:58:17;;;;;;;36.00;10.23;;;11.50;99.90;;;;;;5121255;27;20317;-64
2024/02/14 10:00:43;;;;;;;27.85;10.07;;;11.40;99.90;;;;;;5141285;27;20047;-65
2024/02/14 10:03:09;;;;;;;28.70;9.20;;;11.40;99.90;;;;;;5138484;27;20046;-65
2024/02/14 10:05:35;;;;;;;25.38;9.13;;;11.40;99.90;;;;;;5141669;27;20507;-65
2024/02/14 10:08:01;;;;;;;25.98;10.13;;;11.20;99.90;;;;;;5138406;27;20045;-66
2024/02/14 10:10:30;;;;;;;29.98;9.13;;;11.50;99.90;;;;;;5141644;27;20414;-65
2024/02/14 10:12:56;;;;;;;16.85;8.88;;;11.20;99.90;;;;;;5139549;27;20672;-64
2024/02/14 10:15:22;;;;;;;28.38;10.25;;;11.40;99.90;;;;;;5140101;27;20127;-65
2024/02/14 10:17:48;;;;;;;28.75;9.77;;;11.50;99.90;;;;;;5140263;27;20159;-65
2024/02/14 10:20:17;;;;;;;22.45;8.70;;;11.30;99.90;;;;;;5104427;27;20550;-65
2024/02/14 10:22:44;;;;;;;23.70;8.80;;;11.40;99.90;;;;;;5120699;27;20353;-64
2024/02/14 10:25:10;;;;;;;20.17;7.97;;;11.40;99.90;;;;;;5138028;27;20785;-64
2024/02/14 10:27:37;;;;;;;19.25;8.00;;;11.60;99.90;;;;;;5139558;27;20165;-64
2024/02/14 10:30:14;;;;;;;14.40;7.88;;;11.50;99.90;;;;;;5139404;27;20091;-64
2024/02/14 10:32:40;;;;;;;15.80;8.50;;;11.40;99.90;;;;;;5140536;27;20039;-64
2024/02/14 10:35:11;;;;;;;23.67;9.65;;;11.60;99.90;;;;;;5121968;27;20034;-64
2024/02/14 10:37:38;;;;;;;23.13;9.68;;;11.70;99.90;;;;;;5138782;27;20043;-64
2024/02/14 10:40:06;;;;;;;19.92;7.93;;;11.40;99.90;;;;;;5141054;27;20035;-64
2024/02/14 10:42:32;;;;;;;15.00;6.70;;;11.70;99.90;;;;;;5138239;27;20736;-64
2024/02/14 10:44:59;;;;;;;12.23;6.85;;;11.40;99.90;;;;;;5139663;27;20283;-62
2024/02/14 10:47:30;;;;;;;13.43;6.20;;;11.50;99.90;;;;;;5139666;27;20035;-64
2024/02/14 10:50:07;;;;;;;15.90;6.43;;;11.70;99.90;;;;;;5138964;27;20330;-65
2024/02/14 10:52:35;;;;;;;9.93;5.72;;;11.60;99.90;;;;;;5140894;27;20038;-65
2024/02/14 10:55:08;;;;;;;8.45;4.20;;;11.70;99.90;;;;;;5137334;27;20041;-64
2024/02/14 10:57:33;;;;;;;11.02;5.40;;;11.80;99.90;;;;;;5139366;27;20035;-63
2024/02/14 11:00:07;;;;;;;8.90;4.25;;;11.50;99.90;;;;;;5139366;27;20038;-64
2024/02/14 11:02:33;;;;;;;8.27;3.90;;;11.50;99.90;;;;;;5139200;27;20045;-64
2024/02/14 11:05:00;;;;;;;7.82;4.13;;;11.50;99.90;;;;;;5137489;27;20043;-65
2024/02/14 11:07:29;;;;;;;5.53;3.80;;;11.50;99.90;;;;;;5140265;27;20356;-65
2024/02/14 11:10:04;;;;;;;8.35;5.20;;;11.50;99.90;;;;;;5140335;27;20038;-64
2024/02/14 11:12:36;;;;;;;9.90;5.07;;;11.90;99.90;;;;;;5140205;27;20039;-63
2024/02/14 11:15:21;;;;;;;8.80;5.13;;;11.80;99.90;;;;;;5140847;27;20115;-64
2024/02/14 11:17:54;;;;;;;13.05;5.85;;;11.90;99.90;;;;;;5143546;27;20038;-63
2024/02/14 11:20:21;;;;;;;11.05;6.30;;;11.90;99.90;;;;;;5122668;27;20049;-64
2024/02/14 11:22:56;;;;;;;11.90;6.85;;;11.70;99.90;;;;;;5143931;27;20043;-64
2024/02/14 11:25:32;;;;;;;12.57;6.63;;;11.60;99.90;;;;;;5138707;27;20527;-65
2024/02/14 11:27:58;;;;;;;12.70;7.20;;;11.70;99.90;;;;;;5123754;27;20035;-65
2024/02/14 11:30:37;;;;;;;14.35;7.63;;;11.80;99.90;;;;;;5143557;27;20137;-64
2024/02/14 11:33:24;;;;;;;13.95;7.35;;;11.90;99.90;;;;;;5134175;27;20035;-64
2024/02/14 11:35:52;;;;;;;9.65;7.25;;;12.00;99.90;;;;;;5141031;27;20121;-64
2024/02/14 11:38:19;;;;;;;9.43;6.78;;;11.90;99.90;;;;;;5140285;27;20590;-64
2024/02/14 11:40:45;;;;;;;10.10;6.97;;;11.90;99.90;;;;;;5124330;27;20121;-63
2024/02/14 11:43:21;;;;;;;11.65;6.65;;;11.70;99.90;;;;;;5124064;27;20566;-64
2024/02/14 11:45:52;;;;;;;10.02;6.43;;;11.70;99.90;;;;;;5142820;27;20045;-64
2024/02/14 11:48:20;;;;;;;10.18;5.97;;;11.60;99.90;;;;;;5141837;27;20038;-64
2024/02/14 11:50:46;;;;;;;6.68;5.30;;;11.80;99.90;;;;;;5141814;27;20672;-64
2024/02/14 11:53:16;;;;;;;9.30;5.50;;;11.70;99.90;;;;;;5141106;27;20038;-65
2024/02/14 11:55:42;;;;;;;8.55;5.25;;;11.90;99.90;;;;;;5142079;27;20178;-64
2024/02/14 11:58:12;;;;;;;7.20;4.78;;;11.90;99.90;;;;;;5120221;27;20465;-64
2024/02/14 12:00:42;;;;;;;6.55;4.30;;;11.80;99.90;;;;;;5141277;27;20047;-64
2024/02/14 12:03:15;;;;;;;6.97;4.97;;;11.80;99.90;;;;;;5141986;27;20042;-64
2024/02/14 12:05:43;;;;;;;8.88;5.20;;;12.10;99.90;;;;;;5142826;27;20047;-64
2024/02/14 12:08:09;;;;;;;8.65;5.90;;;12.10;99.90;;;;;;5141634;27;20154;-64
2024/02/14 12:10:37;;;;;;;5.65;4.40;;;11.90;99.90;;;;;;5120513;27;20039;-64
2024/02/14 12:13:11;;;;;;;4.17;3.77;;;11.90;99.90;;;;;;5143004;27;20411;-64
2024/02/14 12:15:42;;;;;;;4.93;3.88;;;12.10;99.90;;;;;;5142616;27;20038;-64
2024/02/14 12:18:10;;;;;;;6.80;4.60;;;11.90;99.90;;;;;;5141642;27;20093;-64
2024/02/14 12:20:40;;;;;;;7.75;5.13;;;11.90;99.90;;;;;;5143308;27;20091;-64
2024/02/14 12:23:06;;;;;;;6.88;4.57;;;12.20;99.90;;;;;;5143341;27;20049;-64
2024/02/14 12:25:33;;;;;;;5.95;4.90;;;12.20;99.90;;;;;;5122375;27;20046;-65
2024/02/14 12:28:00;;;;;;;7.13;4.97;;;11.90;99.90;;;;;;5140153;27;20023;-65
2024/02/14 12:30:46;;;;;;;5.90;4.80;;;12.20;99.90;;;;;;5140481;27;20039;-65
2024/02/14 12:33:12;;;;;;;7.13;4.60;;;12.00;99.90;;;;;;5142347;27;20034;-64
2024/02/14 12:35:42;;;;;;;6.30;5.25;;;12.20;99.90;;;;;;5123523;27;20070;-64
2024/02/14 12:38:12;;;;;;;8.55;5.53;;;11.90;99.90;;;;;;5141053;27;20113;-65
2024/02/14 12:40:38;;;;;;;8.45;6.13;;;11.90;99.90;;;;;;5141329;27;20034;-65
2024/02/14 12:43:05;;;;;;;7.80;6.75;;;12.30;99.90;;;;;;5141777;27;20042;-63
2024/02/14 12:45:31;;;;;;;8.68;6.57;;;12.00;99.90;;;;;;5141576;27;20034;-64